Havelian Weather



Havelian's Current Weather

Temprature 16.45o haze

haze

Rain: 0 %

Min Temprature15o
Max Temprature17.78o
Humidity72
Wind Speed4.1 m/h
Sun Rise06:41:01
Sun Set18:00:03
Current Time: 26-Feb-2020 23:18:20
Lat/Lon: 34.05, 73.17




Havelian's Geo Location



Havelian's Weather Forecast

Time Overall Temp Min Temp Max Temp Humidity Wind Speed Rain
27-Feb-2020 (Thu)
02:00:00 overcast clouds 15.170 13.540 15.170 35 2.34 m/h 0 %
05:00:00 overcast clouds 15.030 13.810 15.030 35 2.9 m/h 0 %
08:00:00 overcast clouds 15.990 15.170 15.990 40 1.69 m/h 0 %
11:00:00 overcast clouds 20.970 20.560 20.970 27 1.63 m/h 0 %
14:00:00 few clouds 22.800 22.800 22.800 23 2.5 m/h 0 %
17:00:00 few clouds 21.200 21.200 21.200 32 1.59 m/h 0 %
20:00:00 clear sky 15.720 15.720 15.720 36 1.25 m/h 0 %
23:00:00 light rain 15.350 15.350 15.350 46 2.59 m/h 25 %
28-Feb-2020 (Fri)
02:00:00 overcast clouds 14.610 14.610 14.610 45 3.12 m/h 0 %
05:00:00 overcast clouds 14.660 14.660 14.660 47 1.88 m/h 0 %
08:00:00 overcast clouds 15.060 15.060 15.060 56 1.21 m/h 0 %
11:00:00 overcast clouds 19.490 19.490 19.490 44 1.75 m/h 0 %
14:00:00 overcast clouds 22.660 22.660 22.660 36 2.86 m/h 0 %
17:00:00 overcast clouds 21.300 21.300 21.300 44 2.26 m/h 0 %
20:00:00 light rain 15.680 15.680 15.680 60 2.92 m/h 44 %
23:00:00 light rain 14.440 14.440 14.440 63 1.42 m/h 31 %
29-Feb-2020 (Sat)
02:00:00 light rain 12.470 12.470 12.470 80 0.96 m/h 119 %
05:00:00 light rain 12.020 12.020 12.020 88 1.42 m/h 212 %
08:00:00 moderate rain 12.410 12.410 12.410 86 3.7 m/h 425 %
11:00:00 light rain 14.500 14.500 14.500 72 4.1 m/h 69 %
14:00:00 light rain 16.140 16.140 16.140 63 3.57 m/h 13 %
17:00:00 light rain 16.540 16.540 16.540 61 1.92 m/h 94 %
20:00:00 light rain 12.820 12.820 12.820 76 1.34 m/h 88 %
23:00:00 light rain 12.680 12.680 12.680 70 2.26 m/h 38 %
01-Mar-2020 (Sun)
02:00:00 clear sky 11.070 11.070 11.070 71 0.96 m/h 0 %
05:00:00 clear sky 11.070 11.070 11.070 65 1.11 m/h 0 %
08:00:00 clear sky 13.470 13.470 13.470 59 1.19 m/h 0 %
11:00:00 clear sky 18.560 18.560 18.560 44 2.19 m/h 0 %
14:00:00 few clouds 20.840 20.840 20.840 41 2.1 m/h 0 %
17:00:00 scattered clouds 20.110 20.110 20.110 50 1.38 m/h 0 %
20:00:00 clear sky 15.000 15.000 15.000 62 1.24 m/h 0 %
23:00:00 clear sky 14.630 14.630 14.630 56 2.01 m/h 0 %
02-Mar-2020 (Mon)
02:00:00 clear sky 14.060 14.060 14.060 54 2.4 m/h 0 %
05:00:00 clear sky 13.240 13.240 13.240 53 2.41 m/h 0 %
08:00:00 few clouds 15.730 15.730 15.730 53 1.86 m/h 0 %
11:00:00 scattered clouds 20.880 20.880 20.880 35 2.03 m/h 0 %
14:00:00 broken clouds 22.860 22.860 22.860 33 3.12 m/h 0 %
17:00:00 broken clouds 21.230 21.230 21.230 43 2.06 m/h 0 %
20:00:00 clear sky 15.830 15.830 15.830 53 1.54 m/h 0 %
23:00:00 clear sky 15.190 15.190 15.190 52 2.23 m/h 0 %

Famous Cities (61)